Time;durP1;ratioP1;P1;durP2;ratioP2;P2;SDS_P1;SDS_P2;PMS_P1;PMS_P2;Temp;Humidity;BMP_temperature;BMP_pressure;BME280_temperature;BME280_humidity;BME280_pressure;Samples;Min_cycle;Max_cycle;Signal;HPM_P1;HPM_P2
2022/01/20 00:04:29;;;;;;;7.90;7.10;;;3.40;99.90;;;;;;5084169;28;20237;-70
2022/01/20 00:09:55;;;;;;;9.95;7.45;;;3.40;99.90;;;;;;5087760;28;20211;-69
2022/01/20 00:28:49;;;;;;;7.05;5.78;;;3.40;99.90;;;;;;5084871;28;20192;-69
2022/01/20 00:34:14;;;;;;;7.40;6.00;;;3.40;99.90;;;;;;5085592;28;20698;-70
2022/01/20 00:39:27;;;;;;;6.85;5.65;;;3.50;99.90;;;;;;5085125;28;20243;-70
2022/01/20 00:41:54;;;;;;;7.18;5.57;;;3.40;99.90;;;;;;5086843;28;20207;-69
2022/01/20 00:44:22;;;;;;;7.65;6.47;;;3.50;99.90;;;;;;5086725;28;20231;-69
2022/01/20 00:46:49;;;;;;;7.00;5.80;;;3.40;99.90;;;;;;5085785;28;20210;-69
2022/01/20 00:49:15;;;;;;;6.85;5.05;;;3.40;99.90;;;;;;5087301;28;20287;-69
2022/01/20 00:51:42;;;;;;;5.78;5.22;;;3.40;99.90;;;;;;5086719;28;21054;-69
2022/01/20 00:54:09;;;;;;;5.63;5.05;;;3.40;99.90;;;;;;5085722;28;20198;-70
2022/01/20 00:56:36;;;;;;;5.60;5.10;;;3.40;99.90;;;;;;5086186;28;20260;-70
2022/01/20 00:59:02;;;;;;;6.72;4.85;;;3.50;99.90;;;;;;5086054;28;20234;-71
2022/01/20 01:01:29;;;;;;;5.75;5.25;;;3.50;99.90;;;;;;5086957;28;20204;-71
2022/01/20 01:03:55;;;;;;;6.55;5.03;;;3.50;99.90;;;;;;5085390;28;20200;-69
2022/01/20 01:08:48;;;;;;;4.75;4.30;;;3.50;99.90;;;;;;5086471;28;20283;-70
2022/01/20 01:11:15;;;;;;;5.30;4.63;;;3.50;99.90;;;;;;5087191;28;20246;-70
2022/01/20 01:13:41;;;;;;;4.90;3.92;;;3.50;99.90;;;;;;5086996;28;20260;-70
2022/01/20 01:16:10;;;;;;;4.95;4.55;;;3.50;99.90;;;;;;5086370;28;20713;-70
2022/01/20 01:21:40;;;;;;;4.28;3.90;;;3.50;99.90;;;;;;5084702;28;20191;-70
2022/01/20 01:24:07;;;;;;;4.40;4.00;;;3.60;99.90;;;;;;5086289;28;20222;-70
2022/01/20 01:26:34;;;;;;;4.57;4.10;;;3.50;99.90;;;;;;5081290;28;20283;-70
2022/01/20 01:29:03;;;;;;;4.90;4.35;;;3.50;99.90;;;;;;5086557;28;20200;-70
2022/01/20 01:31:34;;;;;;;4.68;4.05;;;3.50;99.90;;;;;;5087207;28;20219;-70
2022/01/20 01:34:05;;;;;;;5.15;4.75;;;3.50;99.90;;;;;;5086110;28;20180;-71
2022/01/20 01:36:47;;;;;;;4.18;3.80;;;3.50;99.90;;;;;;5087531;28;20210;-71
2022/01/20 01:39:14;;;;;;;4.43;4.03;;;3.50;99.90;;;;;;5086857;28;20269;-70
2022/01/20 01:41:41;;;;;;;3.97;3.63;;;3.50;99.90;;;;;;5086370;28;20192;-70
2022/01/20 01:44:09;;;;;;;4.90;4.30;;;3.50;99.90;;;;;;5086562;28;20334;-69
2022/01/20 01:46:38;;;;;;;5.75;4.70;;;3.50;99.90;;;;;;5086808;28;20264;-70
2022/01/20 01:49:05;;;;;;;4.15;3.75;;;3.50;99.90;;;;;;5087083;28;20214;-70
2022/01/20 01:51:31;;;;;;;3.70;3.40;;;3.50;99.90;;;;;;5084982;28;20295;-69
2022/01/20 01:53:58;;;;;;;4.43;4.03;;;3.50;99.90;;;;;;5086273;28;20199;-69
2022/01/20 01:56:24;;;;;;;3.83;3.47;;;3.50;99.90;;;;;;5085880;28;20656;-69
2022/01/20 01:58:51;;;;;;;3.40;3.20;;;3.50;99.90;;;;;;5086657;28;20223;-69
2022/01/20 02:01:18;;;;;;;3.63;3.33;;;3.40;99.90;;;;;;5081370;28;20287;-68
2022/01/20 02:03:46;;;;;;;4.63;4.22;;;3.40;99.90;;;;;;5074335;28;20540;-68
2022/01/20 02:19:48;;;;;;;7.10;5.47;;;3.40;99.90;;;;;;5074874;28;20180;-68
2022/01/20 02:22:14;;;;;;;5.70;5.07;;;3.40;99.90;;;;;;5074878;28;20584;-68
2022/01/20 02:24:41;;;;;;;5.88;5.28;;;3.40;99.90;;;;;;5073422;28;20200;-68
2022/01/20 02:27:07;;;;;;;6.07;5.05;;;3.40;99.90;;;;;;5075420;28;20204;-68
2022/01/20 02:29:34;;;;;;;8.30;6.20;;;3.40;99.90;;;;;;5077752;28;20200;-68
2022/01/20 02:32:01;;;;;;;8.60;6.07;;;3.40;99.90;;;;;;5078268;28;20223;-69
2022/01/20 02:34:30;;;;;;;8.43;6.90;;;3.40;99.90;;;;;;5078483;28;20196;-68
2022/01/20 02:37:01;;;;;;;8.07;6.68;;;3.40;99.90;;;;;;5077759;28;20196;-68
2022/01/20 02:44:57;;;;;;;8.00;6.55;;;3.40;99.90;;;;;;5077451;28;20632;-68
2022/01/20 02:47:27;;;;;;;7.57;6.20;;;3.40;99.90;;;;;;5077451;28;20200;-69
2022/01/20 02:49:54;;;;;;;6.53;5.93;;;3.40;99.90;;;;;;5076812;28;20219;-68
2022/01/20 02:52:23;;;;;;;6.82;6.07;;;3.40;99.90;;;;;;5075072;28;20227;-69
2022/01/20 02:54:59;;;;;;;6.35;5.75;;;3.30;99.90;;;;;;5077098;28;20196;-68
2022/01/20 02:57:25;;;;;;;6.45;5.78;;;3.30;99.90;;;;;;5077265;28;20642;-69
2022/01/20 02:59:52;;;;;;;25.40;14.85;;;3.30;99.90;;;;;;5077233;28;20196;-69
2022/01/20 03:02:19;;;;;;;10.00;6.63;;;3.30;99.90;;;;;;5077068;28;20569;-67
2022/01/20 03:04:45;;;;;;;8.80;7.95;;;3.30;99.90;;;;;;5077186;28;20530;-69
2022/01/20 03:07:12;;;;;;;30.95;21.00;;;3.30;99.90;;;;;;5076646;28;20321;-69
2022/01/20 03:09:38;;;;;;;15.38;12.40;;;3.30;99.90;;;;;;5076814;28;20208;-69
2022/01/20 03:12:05;;;;;;;10.98;9.27;;;3.30;99.90;;;;;;5076690;28;20219;-70
2022/01/20 03:14:32;;;;;;;18.23;13.40;;;3.20;99.90;;;;;;5076358;28;20698;-69
2022/01/20 03:16:58;;;;;;;11.77;10.57;;;3.20;99.90;;;;;;5077084;28;20230;-69
2022/01/20 03:19:25;;;;;;;13.05;9.68;;;3.20;99.90;;;;;;5077658;28;20207;-69
2022/01/20 03:21:52;;;;;;;15.18;10.50;;;3.20;99.90;;;;;;5076979;28;20237;-69
2022/01/20 03:24:18;;;;;;;11.07;9.05;;;3.10;99.90;;;;;;5076358;28;20219;-69
2022/01/20 03:26:45;;;;;;;18.35;12.82;;;3.10;99.90;;;;;;5076701;28;20196;-70
2022/01/20 03:29:12;;;;;;;12.20;9.80;;;3.10;99.90;;;;;;5076689;28;20667;-69
2022/01/20 03:31:38;;;;;;;11.95;10.07;;;3.10;99.90;;;;;;5075283;28;20292;-69
2022/01/20 03:34:05;;;;;;;22.63;16.40;;;3.10;99.90;;;;;;5076538;28;20547;-69
2022/01/20 03:36:32;;;;;;;11.35;9.88;;;3.10;99.90;;;;;;5076426;28;20670;-69
2022/01/20 03:38:59;;;;;;;13.65;9.57;;;3.10;99.90;;;;;;5075286;28;20205;-69
2022/01/20 03:41:26;;;;;;;37.03;23.40;;;3.10;99.90;;;;;;5076381;28;20200;-69
2022/01/20 03:43:52;;;;;;;43.65;25.90;;;3.10;99.90;;;;;;5075409;28;20280;-69
2022/01/20 03:46:19;;;;;;;62.65;33.38;;;3.10;99.90;;;;;;5076192;28;20667;-70
2022/01/20 03:48:51;;;;;;;29.35;19.48;;;3.10;99.90;;;;;;5074810;28;20196;-69
2022/01/20 03:51:21;;;;;;;16.33;10.00;;;3.10;99.90;;;;;;5075074;28;20566;-70
2022/01/20 03:53:49;;;;;;;11.40;9.60;;;3.10;99.90;;;;;;5035875;28;20198;-70
2022/01/20 03:56:18;;;;;;;44.35;24.02;;;3.00;99.90;;;;;;5035762;28;20251;-68
2022/01/20 03:58:45;;;;;;;12.38;10.25;;;3.10;99.90;;;;;;5034847;28;20227;-68
2022/01/20 04:01:14;;;;;;;14.98;10.52;;;3.00;99.90;;;;;;5034763;28;20672;-68
2022/01/20 04:03:41;;;;;;;28.08;19.40;;;3.00;99.90;;;;;;5035607;28;20262;-68
2022/01/20 04:06:09;;;;;;;33.50;20.00;;;3.10;99.90;;;;;;5035643;28;20717;-68
2022/01/20 04:08:38;;;;;;;11.05;9.05;;;3.10;99.90;;;;;;5035875;28;20201;-68
2022/01/20 04:11:13;;;;;;;29.83;18.35;;;3.00;99.90;;;;;;5036312;28;20221;-69
2022/01/20 04:13:40;;;;;;;104.68;54.60;;;3.00;99.90;;;;;;5034650;28;20177;-69
2022/01/20 04:16:14;;;;;;;27.48;16.20;;;3.00;99.90;;;;;;5035665;28;20232;-68
2022/01/20 04:18:54;;;;;;;12.60;9.80;;;3.10;99.90;;;;;;5035519;28;20220;-69
2022/01/20 04:21:24;;;;;;;11.52;9.20;;;3.10;99.90;;;;;;5035455;28;20599;-70
2022/01/20 04:23:52;;;;;;;42.38;24.08;;;3.10;99.90;;;;;;5034809;28;20266;-69
2022/01/20 04:26:19;;;;;;;11.80;9.82;;;3.10;99.90;;;;;;5035018;28;20205;-69
2022/01/20 04:28:45;;;;;;;107.57;53.75;;;3.00;99.90;;;;;;5035318;28;20212;-68
2022/01/20 04:31:12;;;;;;;50.63;27.98;;;3.10;99.90;;;;;;5035058;28;20271;-69
2022/01/20 04:33:38;;;;;;;15.48;11.20;;;3.00;99.90;;;;;;5034900;28;20201;-69
2022/01/20 04:36:06;;;;;;;17.25;12.75;;;3.10;99.90;;;;;;5035070;28;20562;-69
2022/01/20 04:38:33;;;;;;;19.83;12.73;;;3.10;99.90;;;;;;5034731;28;20231;-69
2022/01/20 04:40:59;;;;;;;12.40;10.18;;;3.10;99.90;;;;;;5035459;28;20581;-68
2022/01/20 04:43:27;;;;;;;14.57;10.43;;;3.10;99.90;;;;;;5035252;28;20613;-69
2022/01/20 04:46:05;;;;;;;15.00;10.07;;;3.00;99.90;;;;;;5035649;28;20232;-69
2022/01/20 04:59:30;;;;;;;27.75;17.45;;;3.10;99.90;;;;;;5074325;28;20188;-69
2022/01/20 05:01:56;;;;;;;120.22;53.03;;;3.10;99.90;;;;;;5073172;28;20237;-68
2022/01/20 05:04:24;;;;;;;19.85;12.80;;;3.10;99.90;;;;;;5074460;28;20207;-69
2022/01/20 05:06:54;;;;;;;18.60;12.25;;;3.10;99.90;;;;;;5073116;28;20231;-69
2022/01/20 05:09:21;;;;;;;10.73;8.95;;;3.10;99.90;;;;;;5074470;28;20204;-68
2022/01/20 05:11:58;;;;;;;15.45;11.07;;;3.10;99.90;;;;;;5074037;28;20227;-69
2022/01/20 05:14:25;;;;;;;21.33;13.90;;;3.00;99.90;;;;;;5073730;28;20237;-69
2022/01/20 05:16:53;;;;;;;17.33;13.13;;;3.00;99.90;;;;;;5074888;28;20200;-69
2022/01/20 05:19:20;;;;;;;14.48;10.48;;;2.90;99.90;;;;;;5074818;28;20631;-69
2022/01/20 05:21:47;;;;;;;19.80;12.45;;;2.80;99.90;;;;;;5073292;28;20206;-69
2022/01/20 05:24:13;;;;;;;15.98;11.32;;;2.80;99.90;;;;;;5074250;28;20200;-69
2022/01/20 05:26:39;;;;;;;12.63;9.43;;;2.70;99.90;;;;;;5074774;28;20204;-69
2022/01/20 05:29:06;;;;;;;10.48;8.60;;;2.70;99.90;;;;;;5075108;28;20196;-69
2022/01/20 05:31:32;;;;;;;13.23;9.05;;;2.70;99.90;;;;;;5074405;28;20219;-69
2022/01/20 05:33:59;;;;;;;13.82;9.93;;;2.70;99.90;;;;;;5074254;28;20716;-70
2022/01/20 05:36:26;;;;;;;16.10;10.75;;;2.60;99.90;;;;;;5074621;28;20207;-69
2022/01/20 05:38:52;;;;;;;11.32;8.35;;;2.50;99.90;;;;;;5074504;28;20200;-69
2022/01/20 05:41:19;;;;;;;18.67;11.70;;;2.50;99.90;;;;;;5074458;28;20204;-70
2022/01/20 05:43:46;;;;;;;12.85;10.32;;;2.50;99.90;;;;;;5074350;28;20262;-69
2022/01/20 05:46:15;;;;;;;13.50;10.32;;;2.40;99.90;;;;;;5072870;28;20199;-69
2022/01/20 05:48:47;;;;;;;11.70;9.15;;;2.30;99.90;;;;;;5074240;28;20576;-69
2022/01/20 05:51:14;;;;;;;16.77;10.52;;;2.40;99.90;;;;;;5074770;28;20180;-67
2022/01/20 05:53:41;;;;;;;13.02;9.02;;;2.30;99.90;;;;;;5073791;28;20232;-67
2022/01/20 05:56:07;;;;;;;15.85;9.32;;;2.30;99.90;;;;;;5072680;28;20199;-68
2022/01/20 05:58:36;;;;;;;16.70;10.65;;;2.30;99.90;;;;;;5074211;28;20208;-68
2022/01/20 06:01:08;;;;;;;13.75;9.70;;;2.30;99.90;;;;;;5073950;28;20204;-68
2022/01/20 06:03:37;;;;;;;12.55;9.07;;;2.20;99.90;;;;;;5075540;28;20196;-69
2022/01/20 06:06:10;;;;;;;13.15;10.65;;;2.20;99.90;;;;;;5076548;28;20703;-71
2022/01/20 06:08:38;;;;;;;14.70;9.93;;;2.20;99.90;;;;;;5077934;28;20264;-71
2022/01/20 06:11:06;;;;;;;13.50;11.00;;;2.10;99.90;;;;;;5076792;28;20200;-70
2022/01/20 06:13:32;;;;;;;13.45;10.20;;;2.10;99.90;;;;;;5078177;28;20218;-70
2022/01/20 06:15:59;;;;;;;19.70;10.40;;;2.10;99.90;;;;;;5078125;28;20254;-70
2022/01/20 06:18:26;;;;;;;13.85;11.07;;;2.00;99.90;;;;;;5077728;28;20682;-70
2022/01/20 06:20:53;;;;;;;14.57;10.10;;;2.00;99.90;;;;;;5077499;28;20238;-70
2022/01/20 06:23:20;;;;;;;14.73;9.75;;;2.00;99.90;;;;;;5077389;28;20287;-70
2022/01/20 06:25:47;;;;;;;14.90;9.95;;;2.00;99.90;;;;;;5076250;28;20568;-70
2022/01/20 06:28:15;;;;;;;16.48;11.38;;;1.90;99.90;;;;;;5060039;28;20208;-68
2022/01/20 06:30:42;;;;;;;18.27;11.60;;;1.90;99.90;;;;;;5077386;28;20230;-69
2022/01/20 06:33:09;;;;;;;16.83;10.95;;;1.90;99.90;;;;;;5077823;28;20694;-69
2022/01/20 06:35:36;;;;;;;17.52;11.40;;;1.90;99.90;;;;;;5077719;28;20200;-68
2022/01/20 06:38:04;;;;;;;19.30;12.18;;;1.90;99.90;;;;;;5077824;28;20208;-69
2022/01/20 06:40:31;;;;;;;22.17;12.25;;;1.80;99.90;;;;;;5077196;28;20208;-69
2022/01/20 06:42:58;;;;;;;19.63;12.20;;;1.80;99.90;;;;;;5077765;28;20204;-69
2022/01/20 06:45:25;;;;;;;24.27;13.65;;;1.80;99.90;;;;;;5077980;28;20291;-69
2022/01/20 06:47:51;;;;;;;24.58;12.93;;;1.80;99.90;;;;;;5076677;28;20660;-70
2022/01/20 06:50:18;;;;;;;20.05;12.13;;;1.80;99.90;;;;;;5076594;28;20204;-69
2022/01/20 06:52:45;;;;;;;20.20;13.90;;;1.80;99.90;;;;;;5076441;28;20244;-69
2022/01/20 06:55:12;;;;;;;23.17;13.95;;;1.90;99.90;;;;;;5076905;28;20204;-69
2022/01/20 06:57:40;;;;;;;23.60;13.80;;;1.90;99.90;;;;;;5076916;28;20196;-69
2022/01/20 07:00:09;;;;;;;20.98;13.70;;;1.90;99.90;;;;;;5076666;28;20591;-69
2022/01/20 07:02:36;;;;;;;18.33;12.65;;;2.00;99.90;;;;;;5075672;28;20208;-70
2022/01/20 07:05:03;;;;;;;21.30;13.13;;;2.00;99.90;;;;;;5077281;28;20199;-69
2022/01/20 07:07:30;;;;;;;24.30;13.77;;;2.00;99.90;;;;;;5075653;28;20589;-69
2022/01/20 07:09:58;;;;;;;20.92;13.18;;;2.00;99.90;;;;;;5076120;28;20200;-69
2022/01/20 07:12:25;;;;;;;19.60;14.98;;;2.00;99.90;;;;;;5077270;28;20220;-71
2022/01/20 07:14:52;;;;;;;26.10;14.45;;;2.00;99.90;;;;;;5076951;28;20207;-71
2022/01/20 07:17:18;;;;;;;18.65;13.27;;;2.00;99.90;;;;;;5077212;28;20208;-71
2022/01/20 07:19:45;;;;;;;20.15;13.52;;;2.00;99.90;;;;;;5077326;28;20214;-71
2022/01/20 07:22:11;;;;;;;20.45;12.77;;;2.00;99.90;;;;;;5077024;28;20253;-71
2022/01/20 07:24:38;;;;;;;21.50;13.30;;;2.00;99.90;;;;;;5077060;28;20295;-71
2022/01/20 07:27:05;;;;;;;22.60;15.02;;;2.00;99.90;;;;;;5076738;28;20254;-70
2022/01/20 07:29:31;;;;;;;23.17;15.05;;;2.00;99.90;;;;;;5077249;28;20613;-71
2022/01/20 07:31:59;;;;;;;30.35;13.20;;;2.00;99.90;;;;;;5076067;28;20628;-70
2022/01/20 07:34:26;;;;;;;27.33;13.18;;;2.00;99.90;;;;;;5076690;28;20200;-71
2022/01/20 07:36:52;;;;;;;32.10;17.60;;;2.00;99.90;;;;;;5075848;28;20283;-70
2022/01/20 07:39:18;;;;;;;21.30;12.65;;;2.10;99.90;;;;;;5076096;28;20640;-71
2022/01/20 07:41:45;;;;;;;20.05;13.98;;;2.10;99.90;;;;;;5074904;28;20614;-71
2022/01/20 07:44:12;;;;;;;24.42;15.43;;;2.10;99.90;;;;;;5076170;28;20558;-70
2022/01/20 07:46:38;;;;;;;19.80;13.85;;;2.10;99.90;;;;;;5075935;28;20200;-71
2022/01/20 07:49:05;;;;;;;23.20;15.15;;;2.20;99.90;;;;;;5075497;28;20200;-70
2022/01/20 07:51:31;;;;;;;23.25;14.77;;;2.20;99.90;;;;;;5075222;28;20601;-70
2022/01/20 07:53:58;;;;;;;21.17;14.43;;;2.20;99.90;;;;;;5075886;28;20188;-70
2022/01/20 07:56:24;;;;;;;18.13;12.48;;;2.20;99.90;;;;;;5075531;28;20200;-70
2022/01/20 07:58:50;;;;;;;22.83;13.48;;;2.20;99.90;;;;;;5076075;28;20282;-70
2022/01/20 08:01:17;;;;;;;20.25;13.88;;;2.20;99.90;;;;;;5076034;28;20197;-70
2022/01/20 08:03:43;;;;;;;21.42;15.23;;;2.30;99.90;;;;;;5075605;28;20208;-70
2022/01/20 08:06:11;;;;;;;21.15;12.95;;;2.30;99.90;;;;;;5075276;28;20591;-70
2022/01/20 08:08:38;;;;;;;19.95;12.80;;;2.30;99.90;;;;;;5075314;28;20200;-70
2022/01/20 08:11:04;;;;;;;22.30;16.83;;;2.30;99.90;;;;;;5076361;28;20667;-71
2022/01/20 08:13:30;;;;;;;16.08;11.90;;;2.30;99.90;;;;;;5075609;28;20765;-72
2022/01/20 08:15:57;;;;;;;23.48;13.90;;;2.30;99.90;;;;;;5077087;28;20192;-71
2022/01/20 08:18:24;;;;;;;21.10;12.45;;;2.40;99.90;;;;;;5076476;28;20208;-69
2022/01/20 08:20:50;;;;;;;21.63;13.48;;;2.40;99.90;;;;;;5076943;28;20188;-70
2022/01/20 08:23:17;;;;;;;17.92;11.85;;;2.40;99.90;;;;;;5077306;28;20264;-70
2022/01/20 08:25:43;;;;;;;17.50;11.80;;;2.50;99.90;;;;;;5058053;28;20199;-71
2022/01/20 08:28:09;;;;;;;26.33;12.18;;;2.50;99.90;;;;;;5076604;28;20663;-71
2022/01/20 08:30:36;;;;;;;20.13;12.82;;;2.40;99.90;;;;;;5075735;28;20202;-70
2022/01/20 08:33:03;;;;;;;25.85;13.30;;;2.50;99.90;;;;;;5074235;28;20224;-70
2022/01/20 08:35:32;;;;;;;21.08;13.38;;;2.60;99.90;;;;;;5074953;28;20196;-70
2022/01/20 08:38:00;;;;;;;25.00;13.73;;;2.60;99.90;;;;;;5074222;28;20214;-71
2022/01/20 08:40:27;;;;;;;17.80;14.38;;;2.70;99.90;;;;;;5077261;28;20196;-71
2022/01/20 08:42:55;;;;;;;16.10;9.95;;;2.70;99.90;;;;;;5076337;28;20253;-71
2022/01/20 08:45:25;;;;;;;12.45;8.85;;;2.90;99.90;;;;;;5077705;28;20207;-72
2022/01/20 08:47:54;;;;;;;24.08;8.70;;;3.10;99.90;;;;;;5077873;28;20207;-71
2022/01/20 08:50:23;;;;;;;14.05;8.35;;;3.30;99.90;;;;;;5076611;28;20195;-71
2022/01/20 08:52:49;;;;;;;17.73;6.35;;;3.50;99.90;;;;;;5076490;28;20231;-72
2022/01/20 08:55:16;;;;;;;15.05;6.60;;;3.60;99.90;;;;;;5076878;28;20256;-72
2022/01/20 08:57:43;;;;;;;11.65;6.40;;;3.70;99.90;;;;;;5076240;28;20291;-72
2022/01/20 09:00:10;;;;;;;19.90;6.68;;;3.80;99.90;;;;;;5073420;28;20195;-72
2022/01/20 09:02:36;;;;;;;17.98;6.82;;;3.80;99.90;;;;;;5075800;28;20207;-71
2022/01/20 09:05:04;;;;;;;17.85;6.47;;;3.90;99.90;;;;;;5075949;28;20207;-71
2022/01/20 09:07:31;;;;;;;13.63;5.45;;;3.90;99.90;;;;;;5076880;28;20283;-72
2022/01/20 09:10:00;;;;;;;15.80;5.70;;;3.90;99.90;;;;;;5076395;28;20245;-73
2022/01/20 09:17:45;;;;;;;8.63;5.15;;;3.90;99.90;;;;;;5074768;28;20187;-72
2022/01/20 09:20:12;;;;;;;17.85;5.95;;;4.00;99.90;;;;;;5074870;28;20266;-72
2022/01/20 09:22:38;;;;;;;30.42;6.18;;;4.10;99.90;;;;;;5072731;28;20207;-72
2022/01/20 09:25:06;;;;;;;11.00;5.15;;;4.30;99.90;;;;;;5073980;28;20199;-73
2022/01/20 09:27:33;;;;;;;14.30;5.57;;;4.40;99.90;;;;;;5073177;28;20196;-70
2022/01/20 09:30:02;;;;;;;10.70;6.20;;;4.50;99.90;;;;;;5074548;28;20204;-73
2022/01/20 09:32:31;;;;;;;14.15;5.15;;;4.50;99.90;;;;;;5073927;28;20285;-72
2022/01/20 09:34:57;;;;;;;13.43;4.72;;;4.60;99.90;;;;;;5074150;28;20204;-72
2022/01/20 09:37:24;;;;;;;11.50;5.20;;;4.70;99.90;;;;;;5073309;28;20196;-71
2022/01/20 09:39:51;;;;;;;15.52;6.78;;;4.60;99.90;;;;;;5073041;28;20239;-71
2022/01/20 09:42:18;;;;;;;8.05;4.30;;;4.50;99.90;;;;;;5073889;28;20208;-70
2022/01/20 09:44:47;;;;;;;12.93;6.00;;;4.40;99.90;;;;;;5073641;28;20582;-71
2022/01/20 09:47:16;;;;;;;17.55;5.95;;;4.50;99.90;;;;;;5073984;28;20214;-71
2022/01/20 09:49:43;;;;;;;12.32;5.40;;;4.40;99.90;;;;;;5073466;28;20562;-72
2022/01/20 09:52:10;;;;;;;10.00;5.32;;;4.40;99.90;;;;;;5073020;28;20281;-72
2022/01/20 09:54:37;;;;;;;12.07;5.72;;;4.50;99.90;;;;;;5074324;28;20195;-71
2022/01/20 09:57:05;;;;;;;6.50;4.53;;;4.60;99.90;;;;;;5074226;28;20246;-72
2022/01/20 09:59:32;;;;;;;12.52;5.00;;;4.70;99.90;;;;;;5074106;28;20200;-71
2022/01/20 10:01:59;;;;;;;7.25;4.30;;;4.80;99.90;;;;;;5072277;28;20600;-72
2022/01/20 10:04:32;;;;;;;11.43;4.25;;;4.90;99.90;;;;;;5073878;28;20268;-72
2022/01/20 10:07:09;;;;;;;11.48;4.53;;;4.90;99.90;;;;;;5074316;28;20593;-72
2022/01/20 10:09:41;;;;;;;8.43;4.60;;;5.00;99.90;;;;;;5074472;28;20674;-72
2022/01/20 10:12:11;;;;;;;7.03;3.80;;;5.20;99.90;;;;;;5074410;28;20563;-72
2022/01/20 10:14:50;;;;;;;8.10;4.00;;;5.30;99.90;;;;;;5072800;28;20295;-70
2022/01/20 10:17:20;;;;;;;14.95;4.20;;;5.30;99.90;;;;;;5074519;28;20199;-72
2022/01/20 10:19:54;;;;;;;12.45;4.85;;;5.40;99.90;;;;;;5074669;28;20188;-71
2022/01/20 10:22:24;;;;;;;9.88;4.05;;;5.30;99.90;;;;;;5074434;28;20188;-72
2022/01/20 10:25:09;;;;;;;11.13;3.75;;;5.40;99.90;;;;;;5074262;28;20211;-72
2022/01/20 10:27:48;;;;;;;5.55;3.30;;;5.40;99.90;;;;;;5074517;28;20241;-72
2022/01/20 10:30:14;;;;;;;4.65;3.80;;;5.40;99.90;;;;;;5073862;28;20204;-72
2022/01/20 10:32:49;;;;;;;8.98;3.70;;;5.40;99.90;;;;;;5073847;28;20220;-72
2022/01/20 10:35:19;;;;;;;3.72;3.30;;;5.30;99.90;;;;;;5073066;28;20184;-72
2022/01/20 10:38:13;;;;;;;7.35;3.85;;;5.30;99.90;;;;;;5073348;28;20200;-73
2022/01/20 10:40:59;;;;;;;8.68;3.60;;;5.40;99.90;;;;;;5073103;28;20647;-72
2022/01/20 10:43:28;;;;;;;17.25;4.88;;;5.30;99.90;;;;;;5073144;28;20552;-72
2022/01/20 10:46:04;;;;;;;8.95;4.22;;;5.30;99.90;;;;;;5073553;28;20230;-72
2022/01/20 10:48:31;;;;;;;10.25;5.40;;;5.20;99.90;;;;;;5074499;28;20207;-72
2022/01/20 10:50:58;;;;;;;11.60;4.03;;;5.20;99.90;;;;;;5075134;28;20203;-72
2022/01/20 10:53:24;;;;;;;13.18;3.85;;;5.10;99.90;;;;;;5076100;28;20228;-71
2022/01/20 10:55:51;;;;;;;10.52;4.88;;;5.00;99.90;;;;;;5076417;28;20199;-71
2022/01/20 10:58:22;;;;;;;16.08;5.65;;;5.10;99.90;;;;;;5076498;28;20282;-71
2022/01/20 11:00:52;;;;;;;12.13;5.65;;;5.10;99.90;;;;;;5076543;28;20192;-71
2022/01/20 11:03:19;;;;;;;11.10;4.50;;;5.20;99.90;;;;;;5075118;28;20200;-71
2022/01/20 11:05:51;;;;;;;9.95;4.88;;;5.10;99.90;;;;;;5076242;28;20203;-71
2022/01/20 11:08:18;;;;;;;15.70;4.80;;;5.20;99.90;;;;;;5077011;28;20208;-71
2022/01/20 11:10:45;;;;;;;8.25;4.70;;;5.30;99.90;;;;;;5076762;28;20212;-72
2022/01/20 11:13:13;;;;;;;10.77;4.35;;;5.70;99.90;;;;;;5074362;28;20223;-72
2022/01/20 11:15:40;;;;;;;11.23;5.00;;;6.40;99.90;;;;;;5075933;28;20265;-72
2022/01/20 11:18:10;;;;;;;10.45;3.70;;;6.50;99.90;;;;;;5076032;28;20200;-72
2022/01/20 11:20:48;;;;;;;8.85;4.65;;;6.50;99.90;;;;;;5082697;28;20184;-72
2022/01/20 11:23:15;;;;;;;3.65;1.90;;;6.30;99.90;;;;;;5076116;28;20207;-72
2022/01/20 11:25:43;;;;;;;4.18;2.25;;;6.10;99.90;;;;;;5075859;28;20256;-71
2022/01/20 11:28:17;;;;;;;3.58;1.33;;;5.10;99.90;;;;;;5076003;28;20683;-71
2022/01/20 11:31:06;;;;;;;6.50;1.77;;;3.90;99.90;;;;;;5076059;28;20234;-71
2022/01/20 11:33:34;;;;;;;3.30;1.70;;;2.90;99.90;;;;;;5075794;28;20273;-72
2022/01/20 11:36:01;;;;;;;6.45;2.05;;;2.50;99.90;;;;;;5075522;28;20644;-71
2022/01/20 11:38:43;;;;;;;3.97;2.75;;;2.60;99.90;;;;;;5075657;28;20203;-71
2022/01/20 11:41:13;;;;;;;4.07;2.25;;;2.80;99.90;;;;;;5075316;28;20208;-71
2022/01/20 11:43:43;;;;;;;5.47;3.47;;;3.00;99.90;;;;;;5075382;28;20210;-71
2022/01/20 11:46:18;;;;;;;16.13;8.00;;;3.10;99.90;;;;;;5075277;28;20257;-71
2022/01/20 11:49:05;;;;;;;7.28;5.10;;;3.50;99.90;;;;;;5075595;28;20212;-71
2022/01/20 11:51:50;;;;;;;8.13;5.60;;;3.80;99.90;;;;;;5075092;28;20203;-71
2022/01/20 11:54:30;;;;;;;11.65;6.40;;;4.10;99.90;;;;;;5075567;28;20223;-71
2022/01/20 11:57:20;;;;;;;13.27;6.60;;;4.30;99.90;;;;;;5075921;28;20200;-71
2022/01/20 11:59:50;;;;;;;11.90;4.75;;;4.40;99.90;;;;;;5075039;28;20184;-71
2022/01/20 12:02:38;;;;;;;12.07;5.13;;;4.40;99.90;;;;;;5075207;28;20192;-71
2022/01/20 12:05:28;;;;;;;8.07;4.38;;;4.30;99.90;;;;;;5075869;28;20199;-71
2022/01/20 12:08:17;;;;;;;9.02;4.75;;;4.30;99.90;;;;;;5075446;28;20273;-71
2022/01/20 12:11:09;;;;;;;3.80;3.47;;;4.30;99.90;;;;;;5075842;28;20345;-71
2022/01/20 12:14:06;;;;;;;6.95;4.15;;;4.30;99.90;;;;;;5074905;28;20211;-71
2022/01/20 12:16:34;;;;;;;8.32;4.13;;;4.30;99.90;;;;;;5065422;28;20200;-74
2022/01/20 12:19:02;;;;;;;4.30;3.30;;;4.20;99.90;;;;;;5075222;28;20235;-70
2022/01/20 12:21:31;;;;;;;6.57;2.70;;;4.20;99.90;;;;;;5074964;28;20256;-70
2022/01/20 12:23:59;;;;;;;8.55;4.85;;;4.20;99.90;;;;;;5075155;28;20229;-70
2022/01/20 12:26:26;;;;;;;10.38;2.80;;;4.10;99.90;;;;;;5074780;28;20211;-69
2022/01/20 12:29:08;;;;;;;6.05;2.35;;;4.10;99.90;;;;;;5074832;28;20238;-70
2022/01/20 12:31:53;;;;;;;8.95;3.80;;;4.10;99.90;;;;;;5074685;28;20208;-71
2022/01/20 12:34:20;;;;;;;7.30;4.90;;;4.30;99.90;;;;;;5074903;28;20208;-70
2022/01/20 12:36:54;;;;;;;9.38;4.00;;;4.30;99.90;;;;;;5075134;28;20600;-69
2022/01/20 12:39:28;;;;;;;6.13;2.60;;;4.40;99.90;;;;;;5074660;28;20695;-71
2022/01/20 12:41:57;;;;;;;5.68;3.58;;;4.30;99.90;;;;;;5075433;28;20196;-71
2022/01/20 12:44:24;;;;;;;6.40;3.55;;;4.30;99.90;;;;;;5075072;28;20734;-71
2022/01/20 12:46:51;;;;;;;6.40;3.47;;;4.40;99.90;;;;;;5074179;28;20200;-72
2022/01/20 12:49:19;;;;;;;12.93;5.65;;;4.30;99.90;;;;;;5073184;28;20204;-71
2022/01/20 12:51:48;;;;;;;10.02;5.93;;;4.40;99.90;;;;;;5074413;28;20642;-70
2022/01/20 12:54:27;;;;;;;5.80;3.58;;;4.40;99.90;;;;;;5073260;28;20224;-71
2022/01/20 12:56:56;;;;;;;3.28;2.35;;;4.40;99.90;;;;;;5074560;28;20555;-72
2022/01/20 12:59:31;;;;;;;5.97;3.38;;;4.30;99.90;;;;;;5074240;28;20215;-71
2022/01/20 13:02:00;;;;;;;5.55;3.10;;;4.30;99.90;;;;;;5074366;28;20179;-71
2022/01/20 13:04:29;;;;;;;8.20;3.17;;;4.40;99.90;;;;;;5073027;28;20638;-70
2022/01/20 13:06:59;;;;;;;5.55;2.97;;;4.40;99.90;;;;;;5073689;28;20235;-70
2022/01/20 13:09:43;;;;;;;7.82;2.90;;;4.40;99.90;;;;;;5073538;28;20252;-70
2022/01/20 13:12:11;;;;;;;2.95;2.30;;;4.40;99.90;;;;;;5073803;28;20204;-72
2022/01/20 13:14:44;;;;;;;9.35;3.70;;;4.30;99.90;;;;;;5074099;28;20257;-70
2022/01/20 13:17:22;;;;;;;11.25;4.35;;;4.50;99.90;;;;;;5074470;28;20207;-70
2022/01/20 13:19:49;;;;;;;6.72;3.90;;;4.50;99.90;;;;;;5056588;28;20260;-71
2022/01/20 13:22:54;;;;;;;4.63;3.60;;;4.60;99.90;;;;;;5074494;28;20200;-70
2022/01/20 13:25:31;;;;;;;4.65;3.65;;;4.80;99.90;;;;;;5074151;28;20180;-71
2022/01/20 13:28:04;;;;;;;14.93;8.43;;;4.80;99.90;;;;;;5072734;28;20204;-71
2022/01/20 13:30:40;;;;;;;23.73;12.07;;;4.90;99.90;;;;;;5074013;28;20192;-71
2022/01/20 13:33:22;;;;;;;7.72;5.97;;;5.00;99.90;;;;;;5073539;28;20222;-71
2022/01/20 13:35:56;;;;;;;17.33;6.20;;;5.00;99.90;;;;;;5073576;28;20181;-72
2022/01/20 13:38:30;;;;;;;8.15;3.05;;;5.10;99.90;;;;;;5073308;28;20195;-71
2022/01/20 13:41:08;;;;;;;13.43;6.10;;;5.00;99.90;;;;;;5074279;28;20192;-71
2022/01/20 13:46:42;;;;;;;7.10;4.25;;;5.00;99.90;;;;;;5074140;28;20192;-68
2022/01/20 13:49:18;;;;;;;6.50;4.78;;;5.00;99.90;;;;;;5073966;28;20183;-70
2022/01/20 13:51:46;;;;;;;18.00;8.75;;;5.10;99.90;;;;;;5073378;28;20224;-71
2022/01/20 13:54:13;;;;;;;10.70;6.85;;;5.10;99.90;;;;;;5073555;28;20211;-70
2022/01/20 13:56:53;;;;;;;17.40;7.03;;;5.10;99.90;;;;;;5072935;28;20207;-70
2022/01/20 13:59:19;;;;;;;16.95;9.68;;;5.10;99.90;;;;;;5073375;28;20200;-70
2022/01/20 14:01:46;;;;;;;27.38;13.57;;;5.10;99.90;;;;;;5073595;28;20204;-70
2022/01/20 14:04:14;;;;;;;56.42;26.48;;;5.00;99.90;;;;;;5073804;28;20200;-70
2022/01/20 14:06:40;;;;;;;27.10;8.13;;;5.00;99.90;;;;;;5073231;28;20249;-70
2022/01/20 14:09:07;;;;;;;8.88;5.20;;;5.00;99.90;;;;;;5073034;28;20260;-69
2022/01/20 14:11:33;;;;;;;10.15;3.78;;;5.00;99.90;;;;;;5071626;28;20253;-69